Westwood Rainier — C6SI3 — position and weather

sailwx.info

Track history (hours):
 
Tides and Currents Weather Stations Pressure Air Temp Water Temp Dewpoint Dewpoint Depression Visibility Wind Speed Wind Dir Waves Ship Positions

Westwood Rainier

Last reported at 2016-Feb-09 20:00 UTC. Time now 2016-Feb-11 10:46 UTC.
Position N 54°12' E 174°24'.

Type: Cargo ship. MMSI: 311348993.

Wind from 070 at 15 knots

Waves 2.5 meters (8 feet), 7 second period

Barometer 1000.8 mb
Air temperature 1.0 ° C
Visibility: greater than 5.4 NM
Dewpoint -1.9 ° C
Water temperature 4.0 ° C

Date/timePositionNaut miles runAvg speedWind from/ knotsBaromVisibWave heightAir tempDewpointWater temp
2016-Feb-09 20:00N 54°12' E 174°24'69114.7 070 / 151000.8 5.4 2.5 1.0-1.9 4.0
2016-Feb-07 21:00N 48°18' E 158°36'34614.4 270 / 31997.5 2.2 1.5-4.0-8.2 2.0
2016-Feb-06 21:00N 44°30' E 152°18'74714.8 070 / 41008.310.8 1.5-0.0-3.0 5.0
2016-Feb-04 18:33N 35°30' E 141°05'1615.4
2016-Feb-04 17:32N 35°18' E 140°52'4414.9
2016-Feb-04 14:33N 34°50' E 140°10'1817.0
2016-Feb-04 13:30N 34°50' E 139°48'1212.1
2016-Feb-04 12:33N 34°59' E 139°40'1212.2
2016-Feb-04 11:33N 35°11' E 139°45'1211.9
2016-Feb-04 10:33N 35°22' E 139°42'1312.9
2016-Feb-04 09:34N 35°33' E 139°50'4 4.1
2016-Feb-04 08:32N 35°36' E 139°47'0 0.0
2016-Feb-04 07:32N 35°36' E 139°47'0 0.0
2016-Feb-04 06:32N 35°36' E 139°47'0 0.0
2016-Feb-04 05:32N 35°36' E 139°47'0 0.0
2016-Feb-04 04:26N 35°36' E 139°47'0 0.0
2016-Feb-04 03:32N 35°36' E 139°47'0 0.0
2016-Feb-04 02:32N 35°36' E 139°47'0 0.0
2016-Feb-04 01:32N 35°36' E 139°47'0 0.0
2016-Feb-04 00:32N 35°36' E 139°47'0 0.0
2016-Feb-03 23:32N 35°36' E 139°47'0 0.0
2016-Feb-03 22:32N 35°36' E 139°47'8 8.2
2016-Feb-03 21:34N 35°30' E 139°52'1313.0
2016-Feb-03 20:33N 35°18' E 139°44'1111.1
2016-Feb-03 19:34N 35°07' E 139°46'9 9.1
2016-Feb-03 18:34N 34°59' E 139°42'  
2016-Feb-01 12:20N 33°55' E 134°54'1114.8
2016-Feb-01 11:34N 34°06' E 134°57'1514.8
2016-Feb-01 10:33N 34°21' E 134°59'1616.1
2016-Feb-01 09:33N 34°32' E 135°13'1110.9
2016-Feb-01 08:33N 34°37' E 135°25'0 0.1
2016-Feb-01 07:30N 34°38' E 135°25'0 0.0
2016-Feb-01 06:30N 34°38' E 135°25'0 0.0
2016-Feb-01 05:30N 34°38' E 135°25'0 0.0
2016-Feb-01 04:18N 34°38' E 135°25'0 0.0
2016-Feb-01 03:06N 34°38' E 135°25'0 0.0
2016-Feb-01 02:30N 34°38' E 135°25'0 0.0
2016-Feb-01 01:30N 34°38' E 135°25'0 0.0
2016-Jan-31 23:24N 34°38' E 135°25'0 0.0
2016-Jan-31 22:30N 34°38' E 135°25'2 2.3
2016-Jan-31 21:33N 34°38' E 135°22'1414.3
2016-Jan-31 20:33N 34°28' E 135°10'1514.7
2016-Jan-31 19:33N 34°16' E 134°59'1313.0
2016-Jan-31 18:34N 34°03' E 135°01'  
Track history (hours):
 
Tides and Currents Weather Stations Pressure Air Temp Water Temp Dewpoint Dewpoint Depression Visibility Wind Speed Wind Dir Waves Ship Positions

Westwood Rainier

Last reported at 2016-Feb-09 20:00 UTC. Time now 2016-Feb-11 10:46 UTC.
Position N 54°12' E 174°24'.

Type: Cargo ship. MMSI: 311348993.

Wind from 070 at 15 knots

Waves 2.5 meters (8 feet), 7 second period

Barometer 1000.8 mb
Air temperature 1.0 ° C
Visibility: greater than 5.4 NM
Dewpoint -1.9 ° C
Water temperature 4.0 ° C

Date/timePositionNaut miles runAvg speedWind from/ knotsBaromVisibWave heightAir tempDewpointWater temp
2016-Feb-09 20:00N 54°12' E 174°24'69114.7 070 / 151000.8 5.4 2.5 1.0-1.9 4.0
2016-Feb-07 21:00N 48°18' E 158°36'34614.4 270 / 31997.5 2.2 1.5-4.0-8.2 2.0
2016-Feb-06 21:00N 44°30' E 152°18'74714.8 070 / 41008.310.8 1.5-0.0-3.0 5.0
2016-Feb-04 18:33N 35°30' E 141°05'1615.4
2016-Feb-04 17:32N 35°18' E 140°52'4414.9
2016-Feb-04 14:33N 34°50' E 140°10'1817.0
2016-Feb-04 13:30N 34°50' E 139°48'1212.1
2016-Feb-04 12:33N 34°59' E 139°40'1212.2
2016-Feb-04 11:33N 35°11' E 139°45'1211.9
2016-Feb-04 10:33N 35°22' E 139°42'1312.9
2016-Feb-04 09:34N 35°33' E 139°50'4 4.1
2016-Feb-04 08:32N 35°36' E 139°47'0 0.0
2016-Feb-04 07:32N 35°36' E 139°47'0 0.0
2016-Feb-04 06:32N 35°36' E 139°47'0 0.0
2016-Feb-04 05:32N 35°36' E 139°47'0 0.0
2016-Feb-04 04:26N 35°36' E 139°47'0 0.0
2016-Feb-04 03:32N 35°36' E 139°47'0 0.0
2016-Feb-04 02:32N 35°36' E 139°47'0 0.0
2016-Feb-04 01:32N 35°36' E 139°47'0 0.0
2016-Feb-04 00:32N 35°36' E 139°47'0 0.0
2016-Feb-03 23:32N 35°36' E 139°47'0 0.0
2016-Feb-03 22:32N 35°36' E 139°47'8 8.2
2016-Feb-03 21:34N 35°30' E 139°52'1313.0
2016-Feb-03 20:33N 35°18' E 139°44'1111.1
2016-Feb-03 19:34N 35°07' E 139°46'9 9.1
2016-Feb-03 18:34N 34°59' E 139°42'  
2016-Feb-01 12:20N 33°55' E 134°54'1114.8
2016-Feb-01 11:34N 34°06' E 134°57'1514.8
2016-Feb-01 10:33N 34°21' E 134°59'1616.1
2016-Feb-01 09:33N 34°32' E 135°13'1110.9
2016-Feb-01 08:33N 34°37' E 135°25'0 0.1
2016-Feb-01 07:30N 34°38' E 135°25'0 0.0
2016-Feb-01 06:30N 34°38' E 135°25'0 0.0
2016-Feb-01 05:30N 34°38' E 135°25'0 0.0
2016-Feb-01 04:18N 34°38' E 135°25'0 0.0
2016-Feb-01 03:06N 34°38' E 135°25'0 0.0
2016-Feb-01 02:30N 34°38' E 135°25'0 0.0
2016-Feb-01 01:30N 34°38' E 135°25'0 0.0
2016-Jan-31 23:24N 34°38' E 135°25'0 0.0
2016-Jan-31 22:30N 34°38' E 135°25'2 2.3
2016-Jan-31 21:33N 34°38' E 135°22'1414.3
2016-Jan-31 20:33N 34°28' E 135°10'1514.7
2016-Jan-31 19:33N 34°16' E 134°59'1313.0
2016-Jan-31 18:34N 34°03' E 135°01'  

Dump ship's entire track history